Time;durP1;ratioP1;P1;durP2;ratioP2;P2;SDS_P1;SDS_P2;PMS_P1;PMS_P2;Temp;Humidity;BMP_temperature;BMP_pressure;BME280_temperature;BME280_humidity;BME280_pressure;Samples;Min_cycle;Max_cycle;Signal;HPM_P1;HPM_P2
2022/07/21 00:01:01;;;;;;;18.58;11.40;;;19.70;99.90;;;;;;5041910;28;20033;-75
2022/07/21 00:03:27;;;;;;;12.23;9.45;;;19.50;99.90;;;;;;5045691;28;20041;-75
2022/07/21 00:05:52;;;;;;;11.18;10.02;;;19.70;99.90;;;;;;5041527;28;20071;-77
2022/07/21 00:08:18;;;;;;;15.60;11.88;;;19.60;99.90;;;;;;5045472;28;20044;-75
2022/07/21 00:10:44;;;;;;;18.05;11.40;;;19.50;99.90;;;;;;5045350;28;20029;-77
2022/07/21 00:13:09;;;;;;;11.88;10.65;;;19.60;99.90;;;;;;5046256;28;20681;-77
2022/07/21 00:15:35;;;;;;;16.77;11.40;;;19.40;99.90;;;;;;5046266;28;20063;-77
2022/07/21 00:18:01;;;;;;;20.48;11.95;;;19.60;99.90;;;;;;5047198;28;20407;-76
2022/07/21 00:20:27;;;;;;;18.25;11.70;;;19.40;99.90;;;;;;5047112;28;20071;-76
2022/07/21 00:22:54;;;;;;;14.43;10.95;;;19.50;99.90;;;;;;5045441;28;20049;-75
2022/07/21 00:25:20;;;;;;;17.90;11.02;;;19.30;99.90;;;;;;5044304;28;20045;-76
2022/07/21 00:27:46;;;;;;;15.52;11.95;;;19.30;99.90;;;;;;5047497;28;20044;-76
2022/07/21 00:30:13;;;;;;;17.75;11.88;;;19.20;99.90;;;;;;5045512;28;20045;-79
2022/07/21 00:32:39;;;;;;;24.70;11.52;;;19.10;99.90;;;;;;5046735;28;20076;-78
2022/07/21 00:35:05;;;;;;;12.45;10.20;;;19.10;99.90;;;;;;5045234;28;20091;-75
2022/07/21 00:37:31;;;;;;;22.30;13.95;;;19.30;99.90;;;;;;5044518;28;20041;-75
2022/07/21 00:39:57;;;;;;;17.35;12.43;;;19.20;99.90;;;;;;5046379;28;20051;-75
2022/07/21 00:42:23;;;;;;;18.08;12.45;;;19.10;99.90;;;;;;5046816;28;20183;-76
2022/07/21 00:44:49;;;;;;;19.13;12.13;;;19.30;99.90;;;;;;5045679;28;20045;-75
2022/07/21 00:47:14;;;;;;;14.35;10.60;;;19.10;99.90;;;;;;5046574;28;20080;-76
2022/07/21 00:49:41;;;;;;;16.27;11.98;;;19.10;99.90;;;;;;5044908;28;20056;-76
2022/07/21 00:52:06;;;;;;;15.98;11.77;;;19.20;99.90;;;;;;5046438;28;20048;-76
2022/07/21 00:54:32;;;;;;;16.40;13.48;;;19.10;99.90;;;;;;5046682;28;20064;-76
2022/07/21 00:56:58;;;;;;;24.30;12.80;;;19.10;99.90;;;;;;5041162;28;20438;-75
2022/07/21 00:59:23;;;;;;;19.02;13.00;;;19.30;99.90;;;;;;5043162;28;20048;-75
2022/07/21 01:01:49;;;;;;;18.85;14.45;;;19.30;99.90;;;;;;5033388;28;20412;-75
2022/07/21 01:04:15;;;;;;;18.98;13.45;;;19.20;99.90;;;;;;5046015;28;20041;-76
2022/07/21 01:06:41;;;;;;;17.60;12.80;;;19.20;99.90;;;;;;5044482;28;20025;-76
2022/07/21 01:09:06;;;;;;;19.00;13.35;;;19.00;99.90;;;;;;5042811;28;20525;-76
2022/07/21 01:11:32;;;;;;;18.17;12.98;;;18.90;99.90;;;;;;5043780;28;20090;-76
2022/07/21 01:13:58;;;;;;;16.65;13.23;;;19.10;99.90;;;;;;5045168;28;20063;-76
2022/07/21 01:16:23;;;;;;;18.67;14.93;;;18.80;99.90;;;;;;5046078;28;20130;-75
2022/07/21 01:18:51;;;;;;;18.90;13.35;;;19.10;99.90;;;;;;5044596;28;20455;-75
2022/07/21 01:21:27;;;;;;;17.45;13.00;;;19.10;99.90;;;;;;5042709;28;20037;-75
2022/07/21 01:23:53;;;;;;;26.20;15.75;;;19.10;99.90;;;;;;5026666;28;20136;-75
2022/07/21 01:26:18;;;;;;;17.10;13.63;;;19.10;99.90;;;;;;5017131;28;20125;-75
2022/07/21 01:28:44;;;;;;;20.20;13.75;;;18.70;99.90;;;;;;5043290;28;20047;-74
2022/07/21 01:31:10;;;;;;;17.05;14.40;;;18.70;99.90;;;;;;5044096;28;20045;-76
2022/07/21 01:33:35;;;;;;;19.48;14.35;;;18.70;99.90;;;;;;5046112;28;20041;-75
2022/07/21 01:36:01;;;;;;;20.05;14.52;;;18.80;99.90;;;;;;5043032;28;20048;-74
2022/07/21 01:41:28;;;;;;;23.50;15.15;;;18.90;99.90;;;;;;5041900;28;20116;-75
2022/07/21 01:43:55;;;;;;;23.17;16.40;;;18.90;99.90;;;;;;5043205;28;20051;-74
2022/07/21 01:46:21;;;;;;;24.05;17.08;;;18.80;99.90;;;;;;5046441;28;20052;-76
2022/07/21 01:48:47;;;;;;;27.67;16.95;;;19.10;99.90;;;;;;5048107;28;20717;-75
2022/07/21 01:51:13;;;;;;;17.45;14.90;;;19.20;99.90;;;;;;5045325;28;20037;-76
2022/07/21 01:53:39;;;;;;;20.30;15.73;;;19.20;99.90;;;;;;5047468;28;20060;-76
2022/07/21 01:56:06;;;;;;;23.65;16.58;;;18.80;99.90;;;;;;5049509;28;20068;-77
2022/07/21 01:58:32;;;;;;;21.05;16.63;;;19.00;99.90;;;;;;5055437;28;20045;-77
2022/07/21 02:00:58;;;;;;;28.17;17.02;;;18.90;99.90;;;;;;5053267;28;20564;-79
2022/07/21 02:03:24;;;;;;;20.92;15.20;;;19.10;99.90;;;;;;5059127;28;20036;-76
2022/07/21 02:05:49;;;;;;;22.63;17.00;;;19.00;99.90;;;;;;5054966;28;20044;-76
2022/07/21 02:08:15;;;;;;;21.20;15.50;;;19.10;99.90;;;;;;5055741;28;20083;-77
2022/07/21 02:10:41;;;;;;;26.92;17.80;;;18.90;99.90;;;;;;5040756;28;20056;-77
2022/07/21 02:13:06;;;;;;;25.60;16.77;;;18.70;99.90;;;;;;5039272;28;20041;-76
2022/07/21 02:15:33;;;;;;;22.70;17.90;;;18.90;99.90;;;;;;5050434;28;20084;-77
2022/07/21 02:17:59;;;;;;;21.42;15.68;;;19.00;99.90;;;;;;5049981;28;20411;-76
2022/07/21 02:20:25;;;;;;;25.08;18.45;;;18.70;99.90;;;;;;5048726;28;20049;-74
2022/07/21 02:22:52;;;;;;;22.13;16.85;;;19.00;99.90;;;;;;5048333;28;20041;-74
2022/07/21 02:25:18;;;;;;;31.77;20.85;;;18.90;99.90;;;;;;5048750;28;20069;-75
2022/07/21 02:27:44;;;;;;;23.88;17.88;;;19.20;99.90;;;;;;5032851;28;20045;-76
2022/07/21 02:30:12;;;;;;;26.08;19.95;;;18.80;99.90;;;;;;5040531;28;20045;-76
2022/07/21 02:32:38;;;;;;;21.88;18.27;;;18.90;99.90;;;;;;5049552;28;20094;-75
2022/07/21 02:35:04;;;;;;;19.63;16.63;;;19.10;99.90;;;;;;5046687;28;20048;-77
2022/07/21 02:37:30;;;;;;;29.80;20.35;;;19.30;99.90;;;;;;5049399;28;20045;-75
2022/07/21 02:39:56;;;;;;;27.35;19.17;;;18.90;99.90;;;;;;5047742;28;20033;-76
2022/07/21 02:42:21;;;;;;;24.17;18.75;;;19.30;99.90;;;;;;5048548;28;20084;-74
2022/07/21 02:44:47;;;;;;;24.20;17.83;;;19.20;99.90;;;;;;5046907;28;20040;-75
2022/07/21 02:47:13;;;;;;;30.92;19.55;;;19.00;99.90;;;;;;5046746;28;20052;-74
2022/07/21 02:49:38;;;;;;;28.90;19.40;;;19.00;99.90;;;;;;5047314;28;20048;-74
2022/07/21 02:52:05;;;;;;;28.80;19.50;;;18.90;99.90;;;;;;5047530;28;20045;-74
2022/07/21 02:54:31;;;;;;;21.45;17.77;;;18.90;99.90;;;;;;5037766;28;20041;-74
2022/07/21 02:56:57;;;;;;;21.83;17.23;;;19.30;99.90;;;;;;5038200;28;20045;-76
2022/07/21 02:59:22;;;;;;;23.48;16.90;;;19.10;99.90;;;;;;5047947;28;20051;-74
2022/07/21 03:01:48;;;;;;;19.98;16.70;;;19.10;99.90;;;;;;5043441;28;20083;-76
2022/07/21 03:04:14;;;;;;;27.85;20.05;;;18.80;99.90;;;;;;5045470;28;20395;-74
2022/07/21 03:06:40;;;;;;;35.63;21.23;;;19.10;99.90;;;;;;5042586;28;20048;-74
2022/07/21 03:09:06;;;;;;;21.73;19.40;;;19.10;99.90;;;;;;5046414;28;20052;-75
2022/07/21 03:11:32;;;;;;;24.10;19.83;;;19.00;99.90;;;;;;5047570;28;20450;-76
2022/07/21 03:13:58;;;;;;;25.55;19.60;;;18.80;99.90;;;;;;5047100;28;20041;-76
2022/07/21 03:16:23;;;;;;;25.58;19.15;;;18.80;99.90;;;;;;5044176;28;20040;-76
2022/07/21 03:18:49;;;;;;;22.40;18.52;;;19.20;99.90;;;;;;5041862;28;21932;-76
2022/07/21 03:21:14;;;;;;;21.80;18.13;;;19.20;99.90;;;;;;5047052;28;20769;-76
2022/07/21 03:23:45;;;;;;;22.50;18.77;;;18.80;99.90;;;;;;5048654;28;20041;-76
2022/07/21 03:26:14;;;;;;;24.83;19.85;;;19.10;99.90;;;;;;5015913;28;20070;-76
2022/07/21 03:28:42;;;;;;;22.33;19.15;;;18.80;99.90;;;;;;5047562;28;20037;-74
2022/07/21 03:31:08;;;;;;;26.17;20.55;;;19.10;99.90;;;;;;5047042;28;20377;-75
2022/07/21 03:33:34;;;;;;;22.08;18.90;;;18.80;99.90;;;;;;5046369;28;20049;-75
2022/07/21 03:36:00;;;;;;;27.00;20.48;;;18.70;99.90;;;;;;5045894;28;20067;-76
2022/07/21 03:38:26;;;;;;;27.02;21.08;;;19.10;99.90;;;;;;5047889;28;20124;-75
2022/07/21 03:40:52;;;;;;;27.30;20.90;;;18.80;99.90;;;;;;5046558;28;20075;-75
2022/07/21 03:43:18;;;;;;;27.17;20.85;;;19.10;99.90;;;;;;5047826;28;20032;-75
2022/07/21 03:45:44;;;;;;;28.70;20.35;;;19.10;99.90;;;;;;5048115;28;20466;-77
2022/07/21 03:48:10;;;;;;;30.60;21.77;;;18.70;99.90;;;;;;5027461;28;20063;-75
2022/07/21 03:50:39;;;;;;;21.70;19.23;;;18.70;99.90;;;;;;5042783;28;20175;-74
2022/07/21 03:53:06;;;;;;;32.67;21.90;;;18.70;99.90;;;;;;5046567;28;20487;-75
2022/07/21 03:55:32;;;;;;;29.70;21.70;;;18.80;99.90;;;;;;5041650;28;20549;-75
2022/07/21 03:58:00;;;;;;;27.48;20.50;;;19.10;99.90;;;;;;5043889;28;20091;-75
2022/07/21 04:00:37;;;;;;;27.10;21.83;;;19.00;99.90;;;;;;5048219;28;20563;-74
2022/07/21 04:03:04;;;;;;;34.13;24.15;;;19.20;99.90;;;;;;5047650;28;20769;-75
2022/07/21 04:05:30;;;;;;;32.72;23.25;;;19.00;99.90;;;;;;5042811;28;20042;-75
2022/07/21 04:07:56;;;;;;;34.80;24.67;;;19.30;99.90;;;;;;5030660;28;20147;-75
2022/07/21 04:10:26;;;;;;;30.35;22.58;;;18.90;99.90;;;;;;5041750;28;20049;-74
2022/07/21 04:12:52;;;;;;;27.88;24.20;;;18.90;99.90;;;;;;5026533;28;20052;-74
2022/07/21 04:15:18;;;;;;;29.88;23.63;;;19.00;99.90;;;;;;5028164;28;20053;-75
2022/07/21 04:17:44;;;;;;;26.42;23.63;;;19.10;99.90;;;;;;5033151;28;20040;-76
2022/07/21 04:20:12;;;;;;;33.78;25.50;;;19.20;99.90;;;;;;5046913;28;20426;-75
2022/07/21 04:22:37;;;;;;;29.98;26.77;;;19.30;99.90;;;;;;5047499;28;20415;-76
2022/07/21 04:25:05;;;;;;;25.02;21.38;;;19.20;99.90;;;;;;5037528;28;20034;-77
2022/07/21 04:27:31;;;;;;;33.35;24.35;;;19.20;99.90;;;;;;5041688;28;20128;-76
2022/07/21 04:29:57;;;;;;;25.13;22.15;;;19.00;99.90;;;;;;5046173;28;20044;-76
2022/07/21 04:32:22;;;;;;;29.10;23.40;;;18.90;99.90;;;;;;5044090;28;20488;-76
2022/07/21 04:34:48;;;;;;;30.10;24.02;;;19.10;99.90;;;;;;5028771;28;20033;-75
2022/07/21 04:37:14;;;;;;;27.25;21.77;;;18.80;99.90;;;;;;5042372;28;20041;-75
2022/07/21 04:39:39;;;;;;;23.95;19.80;;;18.90;99.90;;;;;;5041317;28;20099;-75
2022/07/21 04:42:05;;;;;;;29.70;23.55;;;18.70;99.90;;;;;;5026474;28;20041;-76
2022/07/21 04:44:31;;;;;;;26.23;21.40;;;18.90;99.90;;;;;;5025873;28;20041;-76
2022/07/21 04:46:57;;;;;;;26.38;20.30;;;18.70;99.90;;;;;;5026800;28;20037;-76
2022/07/21 04:49:23;;;;;;;31.05;23.13;;;18.90;99.90;;;;;;5031468;28;20037;-76
2022/07/21 04:51:48;;;;;;;24.52;21.65;;;18.80;99.90;;;;;;5045355;28;20163;-76
2022/07/21 04:54:14;;;;;;;24.88;20.30;;;19.00;99.90;;;;;;5045532;28;20061;-76
2022/07/21 04:56:41;;;;;;;26.58;22.05;;;19.00;99.90;;;;;;5041633;28;20488;-77
2022/07/21 04:59:06;;;;;;;23.50;21.00;;;18.80;99.90;;;;;;5044331;28;20331;-79
2022/07/21 05:01:32;;;;;;;26.75;20.85;;;18.50;99.90;;;;;;5044193;28;20041;-78
2022/07/21 05:03:58;;;;;;;26.58;22.70;;;18.50;99.90;;;;;;5046396;28;20547;-76
2022/07/21 05:06:23;;;;;;;29.50;23.23;;;18.90;99.90;;;;;;5045162;28;20068;-77
2022/07/21 05:08:50;;;;;;;27.73;22.80;;;18.90;99.90;;;;;;5026903;28;20686;-75
2022/07/21 05:11:15;;;;;;;25.05;21.67;;;18.90;99.90;;;;;;5040940;28;20622;-76
2022/07/21 05:13:41;;;;;;;25.48;20.42;;;18.50;99.90;;;;;;5043909;28;20056;-76
2022/07/21 05:16:06;;;;;;;27.80;21.95;;;18.50;99.90;;;;;;5035129;28;20038;-76
2022/07/21 05:18:32;;;;;;;27.27;23.23;;;18.80;99.90;;;;;;5025859;28;20133;-78
2022/07/21 05:20:58;;;;;;;32.75;23.92;;;18.90;99.90;;;;;;5027134;28;20400;-76
2022/07/21 05:23:23;;;;;;;26.77;22.77;;;18.80;99.90;;;;;;5026081;28;20175;-75
2022/07/21 05:25:49;;;;;;;26.63;21.40;;;18.60;99.90;;;;;;5028121;28;20199;-76
2022/07/21 05:28:15;;;;;;;28.30;24.77;;;18.70;99.90;;;;;;5026448;28;20723;-76
2022/07/21 05:30:40;;;;;;;27.02;22.45;;;18.60;99.90;;;;;;5041352;28;20772;-74
2022/07/21 05:33:06;;;;;;;28.27;24.00;;;18.50;99.90;;;;;;5032416;28;20063;-75
2022/07/21 05:35:32;;;;;;;22.42;19.77;;;18.80;99.90;;;;;;5033239;28;20037;-75
2022/07/21 05:37:58;;;;;;;28.95;24.40;;;18.70;99.90;;;;;;5042251;28;20051;-75
2022/07/21 05:40:23;;;;;;;28.10;24.50;;;18.80;99.90;;;;;;5029531;28;20056;-75
2022/07/21 05:42:49;;;;;;;25.75;22.42;;;19.00;99.90;;;;;;5042048;28;20551;-75
2022/07/21 05:45:15;;;;;;;28.38;23.17;;;19.10;99.90;;;;;;5043899;28;20492;-74
2022/07/21 05:47:41;;;;;;;26.25;22.08;;;18.70;99.90;;;;;;5045498;28;20307;-75
2022/07/21 05:50:08;;;;;;;29.13;22.73;;;19.00;99.90;;;;;;5044029;28;20045;-76
2022/07/21 05:52:34;;;;;;;31.33;24.15;;;18.80;99.90;;;;;;5046748;28;20048;-74
2022/07/21 05:54:59;;;;;;;25.63;20.83;;;19.10;99.90;;;;;;5045293;28;20052;-76
2022/07/21 05:57:26;;;;;;;28.17;25.23;;;19.20;99.90;;;;;;5036082;28;20717;-76
2022/07/21 05:59:51;;;;;;;27.92;23.25;;;18.70;99.90;;;;;;5024109;28;20057;-76
2022/07/21 06:02:17;;;;;;;27.10;23.65;;;19.10;99.90;;;;;;5031314;28;20049;-76
2022/07/21 06:04:43;;;;;;;29.13;23.60;;;19.10;99.90;;;;;;5044747;28;20037;-75
2022/07/21 06:07:08;;;;;;;26.38;22.48;;;19.20;99.90;;;;;;5042627;28;20123;-75
2022/07/21 06:09:34;;;;;;;36.83;23.60;;;19.20;99.90;;;;;;5043876;28;20180;-75
2022/07/21 06:11:59;;;;;;;26.67;21.30;;;19.20;99.90;;;;;;5024367;28;20464;-75
2022/07/21 06:14:25;;;;;;;27.70;22.42;;;19.00;99.90;;;;;;5025518;28;20064;-76
2022/07/21 06:16:51;;;;;;;24.27;21.83;;;19.20;99.90;;;;;;5025115;28;20045;-76
2022/07/21 06:19:16;;;;;;;25.35;22.02;;;19.00;99.90;;;;;;5029648;28;20545;-77
2022/07/21 06:21:42;;;;;;;26.80;23.85;;;19.30;99.90;;;;;;5042928;28;20044;-77
2022/07/21 06:24:09;;;;;;;24.35;21.63;;;19.10;99.90;;;;;;5043918;28;20053;-77
2022/07/21 06:26:34;;;;;;;26.77;23.83;;;19.40;99.90;;;;;;5036384;28;20441;-76
2022/07/21 06:29:00;;;;;;;26.30;22.70;;;19.10;99.90;;;;;;5036242;28;20041;-77
2022/07/21 06:31:26;;;;;;;27.63;23.23;;;19.20;99.90;;;;;;5044268;28;20041;-77
2022/07/21 06:33:52;;;;;;;26.75;22.65;;;19.40;99.90;;;;;;5028026;28;20037;-76
2022/07/21 06:36:17;;;;;;;25.90;23.23;;;19.10;99.90;;;;;;5044139;28;20075;-76
2022/07/21 06:38:44;;;;;;;29.80;26.33;;;19.40;99.90;;;;;;5045254;28;20049;-76
2022/07/21 06:41:10;;;;;;;30.42;26.92;;;19.20;99.90;;;;;;5043629;28;20049;-76
2022/07/21 06:43:36;;;;;;;26.25;23.60;;;19.60;99.90;;;;;;5041953;28;20052;-76
2022/07/21 06:46:02;;;;;;;30.35;24.27;;;19.40;99.90;;;;;;5033643;28;20399;-76
2022/07/21 06:48:27;;;;;;;25.17;22.30;;;19.20;99.90;;;;;;5045233;28;20033;-75
2022/07/21 06:50:54;;;;;;;24.38;21.88;;;19.60;99.90;;;;;;5047441;28;20095;-75
2022/07/21 06:53:20;;;;;;;29.27;23.13;;;19.30;99.90;;;;;;5043520;28;20051;-77
2022/07/21 06:55:46;;;;;;;27.02;24.13;;;19.30;99.90;;;;;;5044466;28;20116;-77
2022/07/21 06:58:17;;;;;;;23.42;20.65;;;19.60;99.90;;;;;;5035377;28;20049;-75
2022/07/21 07:00:44;;;;;;;24.38;21.90;;;19.30;99.90;;;;;;5042753;28;20033;-75
2022/07/21 07:03:09;;;;;;;28.75;24.35;;;19.10;99.90;;;;;;5046861;28;20041;-76
2022/07/21 07:05:36;;;;;;;25.17;22.52;;;19.30;99.90;;;;;;5045326;28;20484;-75
2022/07/21 07:08:03;;;;;;;28.63;23.25;;;19.60;99.90;;;;;;5028446;28;20057;-74
2022/07/21 07:10:29;;;;;;;25.23;22.52;;;19.50;99.90;;;;;;5027612;28;20580;-75
2022/07/21 07:12:55;;;;;;;28.52;24.00;;;19.20;99.90;;;;;;5040685;28;20041;-76
2022/07/21 07:15:24;;;;;;;29.52;26.52;;;19.40;99.90;;;;;;5043400;28;20041;-75
2022/07/21 07:17:50;;;;;;;27.95;25.10;;;19.30;99.90;;;;;;5041794;28;20060;-76
2022/07/21 07:20:16;;;;;;;34.25;28.00;;;19.40;99.90;;;;;;5045200;28;20437;-74
2022/07/21 07:22:42;;;;;;;27.15;24.35;;;19.00;99.90;;;;;;5046122;28;20048;-76
2022/07/21 07:25:08;;;;;;;30.63;27.33;;;19.40;99.90;;;;;;5046150;28;20041;-76
2022/07/21 07:27:34;;;;;;;31.10;27.92;;;19.10;99.90;;;;;;5042933;28;20053;-76
2022/07/21 07:30:00;;;;;;;29.70;25.25;;;19.10;99.90;;;;;;5046223;28;20045;-81
2022/07/21 07:32:25;;;;;;;28.55;25.60;;;18.90;99.90;;;;;;5045369;28;20041;-79
2022/07/21 07:34:51;;;;;;;28.15;25.25;;;19.00;99.90;;;;;;5041409;28;20037;-78
2022/07/21 07:37:17;;;;;;;30.65;27.45;;;19.10;99.90;;;;;;5057477;28;20064;-78
2022/07/21 07:39:42;;;;;;;30.30;27.10;;;19.40;99.90;;;;;;5045111;28;20056;-78
2022/07/21 07:42:08;;;;;;;32.20;27.52;;;19.30;99.90;;;;;;5027221;28;20531;-78
2022/07/21 07:44:34;;;;;;;34.10;26.38;;;19.00;99.90;;;;;;5044968;28;20045;-79
2022/07/21 07:47:03;;;;;;;28.77;24.70;;;19.30;99.90;;;;;;5042663;28;20271;-77
2022/07/21 07:49:29;;;;;;;30.52;25.70;;;19.10;99.90;;;;;;5044713;28;20045;-80
2022/07/21 07:51:56;;;;;;;34.53;30.88;;;19.40;99.90;;;;;;5045770;28;20033;-78
2022/07/21 07:54:21;;;;;;;31.67;27.67;;;19.40;99.90;;;;;;5006401;28;1123834;-78
2022/07/21 07:56:47;;;;;;;30.23;27.02;;;19.40;99.90;;;;;;5042905;28;20167;-78
2022/07/21 07:59:13;;;;;;;29.38;25.85;;;19.30;99.90;;;;;;5046347;28;20369;-85
2022/07/21 08:01:38;;;;;;;28.55;25.52;;;19.20;99.90;;;;;;5043574;28;20503;-83
2022/07/21 08:04:05;;;;;;;29.25;25.23;;;19.50;99.90;;;;;;5027874;28;20052;-80
2022/07/21 08:06:31;;;;;;;30.63;27.13;;;19.20;99.90;;;;;;5062447;28;20049;-80
2022/07/21 08:08:56;;;;;;;30.50;26.85;;;19.20;99.90;;;;;;5048033;28;20053;-81
2022/07/21 08:11:22;;;;;;;32.72;29.10;;;19.50;99.90;;;;;;5044540;28;20114;-82
2022/07/21 08:13:48;;;;;;;36.03;29.55;;;19.40;99.90;;;;;;5039800;28;20044;-84
2022/07/21 08:16:15;;;;;;;32.42;26.95;;;19.50;99.90;;;;;;5036823;28;20041;-79
2022/07/21 08:18:41;;;;;;;37.75;30.77;;;19.60;99.90;;;;;;5042448;28;20059;-80
2022/07/21 08:21:07;;;;;;;32.03;28.02;;;19.70;99.90;;;;;;5046524;28;20175;-80
2022/07/21 08:23:33;;;;;;;36.13;32.03;;;19.50;99.90;;;;;;5045466;28;20407;-79
2022/07/21 08:25:59;;;;;;;40.05;32.25;;;19.70;99.90;;;;;;5040161;28;20048;-81
2022/07/21 08:28:24;;;;;;;38.17;29.00;;;19.80;99.90;;;;;;5044980;28;20056;-80
2022/07/21 08:30:51;;;;;;;36.88;31.00;;;19.80;99.90;;;;;;5043878;28;20444;-78
2022/07/21 08:33:16;;;;;;;37.55;30.92;;;19.50;99.90;;;;;;5039651;28;20033;-82
2022/07/21 08:35:42;;;;;;;42.85;33.55;;;19.60;99.90;;;;;;5044413;28;20048;-79
2022/07/21 08:38:11;;;;;;;44.70;35.88;;;19.70;99.90;;;;;;5036093;28;20537;-82
2022/07/21 08:40:43;;;;;;;42.25;35.28;;;19.80;99.90;;;;;;5043295;28;20045;-81
2022/07/21 08:43:12;;;;;;;42.00;35.55;;;19.40;99.90;;;;;;5045010;28;20049;-80
2022/07/21 08:45:37;;;;;;;41.50;36.95;;;19.60;99.90;;;;;;5044713;28;20041;-82
2022/07/21 08:48:07;;;;;;;46.58;39.05;;;19.40;99.90;;;;;;5042624;28;20049;-83
2022/07/21 08:50:36;;;;;;;47.50;38.80;;;19.40;99.90;;;;;;5031223;28;20055;-84
2022/07/21 08:53:02;;;;;;;43.55;38.70;;;19.50;99.90;;;;;;5047880;28;20079;-83
2022/07/21 08:55:30;;;;;;;53.30;44.30;;;19.70;99.90;;;;;;5050227;28;20045;-85
2022/07/21 08:57:56;;;;;;;51.83;42.15;;;19.60;99.90;;;;;;5042834;28;20107;-82
2022/07/21 09:00:21;;;;;;;47.08;42.10;;;19.60;99.90;;;;;;5028680;28;20041;-79
2022/07/21 09:02:47;;;;;;;48.28;43.10;;;19.80;99.90;;;;;;5043370;28;20067;-84
2022/07/21 09:05:13;;;;;;;44.22;39.53;;;19.80;99.90;;;;;;5051464;28;20476;-84
2022/07/21 09:07:48;;;;;;;46.05;39.90;;;19.60;99.90;;;;;;5048876;28;20123;-83
2022/07/21 09:10:14;;;;;;;51.90;44.65;;;19.50;99.90;;;;;;5050262;28;20094;-83
2022/07/21 09:12:58;;;;;;;42.42;37.90;;;19.80;99.90;;;;;;5041478;28;20503;-83
2022/07/21 09:15:26;;;;;;;52.80;42.38;;;19.70;99.90;;;;;;5038366;28;20073;-83
2022/07/21 09:18:13;;;;;;;47.63;40.83;;;19.60;99.90;;;;;;5041051;28;20049;-83
2022/07/21 09:20:50;;;;;;;66.90;46.05;;;19.50;99.90;;;;;;5041463;28;20055;-82
2022/07/21 09:23:18;;;;;;;52.47;43.85;;;19.60;99.90;;;;;;5051622;28;20454;-84
2022/07/21 09:25:44;;;;;;;45.63;40.72;;;19.90;99.90;;;;;;5049484;28;20400;-85
2022/07/21 09:28:17;;;;;;;51.35;45.72;;;19.70;99.90;;;;;;5034416;28;20041;-84
2022/07/21 09:30:56;;;;;;;50.30;43.25;;;19.90;99.90;;;;;;5049250;28;20120;-85
2022/07/21 09:33:42;;;;;;;48.17;43.08;;;19.90;99.90;;;;;;5038867;28;20133;-86
2022/07/21 09:36:09;;;;;;;51.58;45.30;;;19.80;99.90;;;;;;5063144;28;20814;-84
2022/07/21 09:38:39;;;;;;;62.65;47.90;;;20.00;99.90;;;;;;5042445;28;20061;-86
2022/07/21 09:41:24;;;;;;;57.90;45.83;;;19.60;99.90;;;;;;5049228;28;20164;-84
2022/07/21 09:43:55;;;;;;;49.60;43.88;;;19.90;99.90;;;;;;5045657;28;20339;-81
2022/07/21 09:46:24;;;;;;;55.60;45.78;;;19.80;99.90;;;;;;5062261;28;20055;-86
2022/07/21 09:48:56;;;;;;;53.90;48.05;;;19.80;99.90;;;;;;5034922;28;20053;-82
2022/07/21 09:51:31;;;;;;;54.67;46.75;;;19.90;99.90;;;;;;5028204;28;20033;-79
2022/07/21 09:53:59;;;;;;;52.60;44.03;;;20.00;99.90;;;;;;5039583;28;20045;-81
2022/07/21 09:56:27;;;;;;;68.50;44.15;;;19.70;99.90;;;;;;5028883;28;20060;-81
2022/07/21 09:58:54;;;;;;;46.25;40.95;;;19.80;99.90;;;;;;5014310;28;20397;-79
2022/07/21 10:01:21;;;;;;;45.47;40.72;;;20.00;99.90;;;;;;5041737;28;20525;-81
2022/07/21 10:03:49;;;;;;;43.35;38.67;;;19.90;99.90;;;;;;5032567;28;20128;-81
2022/07/21 10:06:17;;;;;;;44.90;40.03;;;19.90;99.90;;;;;;5025099;28;20060;-81
2022/07/21 10:08:44;;;;;;;44.03;39.25;;;20.00;99.90;;;;;;5041945;28;20091;-80
2022/07/21 10:11:10;;;;;;;40.30;36.10;;;19.80;99.90;;;;;;5041210;28;20045;-81
2022/07/21 10:13:38;;;;;;;37.97;33.67;;;19.80;99.90;;;;;;5044594;28;20041;-79
2022/07/21 10:16:04;;;;;;;40.90;33.33;;;19.90;99.90;;;;;;5042271;28;20044;-81
2022/07/21 10:18:51;;;;;;;36.75;31.70;;;20.10;99.90;;;;;;5044379;28;20071;-78
2022/07/21 10:21:40;;;;;;;35.72;32.38;;;19.90;99.90;;;;;;5044839;28;20125;-76
2022/07/21 10:24:10;;;;;;;30.25;27.02;;;20.00;99.90;;;;;;5037209;28;20056;-77
2022/07/21 10:26:37;;;;;;;28.50;25.05;;;20.10;99.90;;;;;;5043592;28;20586;-76
2022/07/21 10:29:02;;;;;;;32.13;26.33;;;19.90;99.90;;;;;;5047234;28;20495;-78
2022/07/21 10:31:28;;;;;;;29.65;26.67;;;20.00;99.90;;;;;;5046644;28;20041;-78
2022/07/21 10:33:59;;;;;;;26.67;24.00;;;20.20;99.90;;;;;;5033321;28;20048;-78
2022/07/21 10:36:27;;;;;;;24.35;21.75;;;20.20;99.90;;;;;;5035778;28;20454;-78
2022/07/21 10:39:18;;;;;;;28.20;25.25;;;19.90;99.90;;;;;;5048794;28;20067;-77
2022/07/21 10:41:53;;;;;;;23.92;20.42;;;20.20;99.90;;;;;;5022817;28;20566;-77
2022/07/21 10:44:39;;;;;;;23.75;21.30;;;20.10;99.90;;;;;;5036740;28;20041;-78
2022/07/21 10:47:15;;;;;;;23.23;20.88;;;20.20;99.90;;;;;;5039056;28;20052;-77
2022/07/21 10:49:45;;;;;;;19.13;17.35;;;20.00;99.90;;;;;;5047179;28;20440;-77
2022/07/21 10:52:39;;;;;;;21.30;19.00;;;20.10;99.90;;;;;;5033247;28;20079;-76
2022/07/21 10:55:11;;;;;;;19.25;17.35;;;20.20;99.90;;;;;;5043932;28;20565;-79
2022/07/21 10:57:42;;;;;;;19.95;17.63;;;20.20;99.90;;;;;;5041755;28;20055;-82
2022/07/21 11:00:33;;;;;;;18.92;16.92;;;20.10;99.90;;;;;;5047085;28;20063;-81
2022/07/21 11:03:01;;;;;;;18.70;16.63;;;20.30;99.90;;;;;;5031063;28;20053;-80
2022/07/21 11:05:33;;;;;;;19.95;17.85;;;20.40;99.90;;;;;;5027400;28;20048;-79
2022/07/21 11:08:15;;;;;;;19.30;17.40;;;20.20;99.90;;;;;;5036627;28;20041;-80
2022/07/21 11:10:43;;;;;;;18.20;16.50;;;20.30;99.90;;;;;;5028462;28;20147;-80
2022/07/21 11:13:10;;;;;;;19.05;16.95;;;20.50;99.90;;;;;;5027301;28;20045;-79
2022/07/21 11:16:02;;;;;;;20.48;17.75;;;20.60;99.90;;;;;;5028910;28;20288;-79
2022/07/21 11:18:32;;;;;;;21.25;19.27;;;20.60;99.90;;;;;;5044058;28;20094;-77
2022/07/21 11:21:13;;;;;;;22.58;20.27;;;20.40;99.90;;;;;;5047885;28;20514;-76
2022/07/21 11:23:48;;;;;;;22.13;20.02;;;20.50;99.90;;;;;;5031941;28;20056;-78
2022/07/21 11:26:16;;;;;;;19.75;17.75;;;20.50;99.90;;;;;;5032309;28;20045;-76
2022/07/21 11:28:44;;;;;;;19.77;17.92;;;20.50;99.90;;;;;;5033412;28;20049;-78
2022/07/21 11:31:16;;;;;;;21.90;19.88;;;20.60;99.90;;;;;;5044202;28;20041;-77
2022/07/21 11:33:44;;;;;;;19.75;17.67;;;20.90;99.90;;;;;;5041522;28;20502;-77
2022/07/21 11:36:21;;;;;;;20.27;17.95;;;20.70;99.90;;;;;;5029912;28;20053;-79
2022/07/21 11:39:09;;;;;;;18.38;16.58;;;20.70;99.90;;;;;;5041231;28;20033;-80
2022/07/21 11:41:36;;;;;;;19.40;16.65;;;20.70;99.90;;;;;;5040738;28;20070;-78
2022/07/21 11:44:02;;;;;;;18.25;16.40;;;20.70;99.90;;;;;;5044669;28;20064;-79
2022/07/21 11:46:43;;;;;;;18.30;16.63;;;21.00;99.90;;;;;;5045790;28;20064;-78
2022/07/21 11:49:10;;;;;;;18.10;16.20;;;21.10;99.90;;;;;;5047952;28;20449;-78
2022/07/21 11:51:36;;;;;;;19.73;17.80;;;21.10;99.90;;;;;;5046322;28;20041;-80
2022/07/21 11:54:02;;;;;;;16.73;15.23;;;21.10;99.90;;;;;;5046008;28;20106;-78
2022/07/21 11:56:28;;;;;;;17.30;15.70;;;21.20;99.90;;;;;;5044194;28;20056;-77
2022/07/21 11:59:11;;;;;;;16.90;15.20;;;21.00;99.90;;;;;;5044207;28;20044;-77
2022/07/21 12:01:54;;;;;;;19.15;16.52;;;21.20;99.90;;;;;;5043354;28;20499;-77
2022/07/21 12:04:31;;;;;;;16.10;14.43;;;21.30;99.90;;;;;;5041193;28;20045;-78
2022/07/21 12:06:58;;;;;;;16.20;14.60;;;21.20;99.90;;;;;;5026169;28;20069;-77
2022/07/21 12:09:24;;;;;;;13.95;12.60;;;21.10;99.90;;;;;;5027497;28;20045;-76
2022/07/21 12:11:50;;;;;;;6.38;5.88;;;21.20;99.90;;;;;;5026438;28;20519;-77
2022/07/21 12:14:16;;;;;;;5.45;4.28;;;20.80;99.90;;;;;;5011887;28;20073;-76
2022/07/21 12:16:53;;;;;;;4.20;3.85;;;20.70;99.90;;;;;;5046651;28;20495;-76
2022/07/21 12:19:20;;;;;;;4.93;4.43;;;20.50;99.90;;;;;;5049366;28;20056;-76
2022/07/21 12:21:51;;;;;;;5.65;5.13;;;20.40;99.90;;;;;;5044397;28;20029;-79
2022/07/21 12:24:19;;;;;;;6.00;5.40;;;20.40;99.90;;;;;;5048027;28;20491;-77
2022/07/21 12:26:45;;;;;;;4.43;4.13;;;20.50;99.90;;;;;;5044575;28;20040;-77
2022/07/21 12:29:25;;;;;;;5.13;3.90;;;20.30;99.90;;;;;;5046407;28;20045;-78
2022/07/21 12:31:51;;;;;;;4.43;4.03;;;20.50;99.90;;;;;;5044801;28;20047;-79
2022/07/21 12:34:18;;;;;;;4.30;3.90;;;20.50;99.90;;;;;;5037786;28;20045;-77